Time;durP1;ratioP1;P1;durP2;ratioP2;P2;SDS_P1;SDS_P2;PMS_P1;PMS_P2;Temp;Humidity;BMP_temperature;BMP_pressure;BME280_temperature;BME280_humidity;BME280_pressure;Samples;Min_cycle;Max_cycle;Signal;HPM_P1;HPM_P2
2024/01/17 00:02:15;;;;;;;8.80;6.93;;;;;;;;;;6187038;23;20397;-69
2024/01/17 00:04:45;;;;;;;13.03;8.13;;;;;;;;;;6213709;23;20809;-67
2024/01/17 00:07:11;;;;;;;7.33;6.20;;;;;;;;;;6213823;23;20380;-67
2024/01/17 00:09:37;;;;;;;13.17;6.10;;;;;;;;;;6213865;23;20723;-68
2024/01/17 00:12:04;;;;;;;11.03;6.40;;;;;;;;;;6213493;23;20438;-68
2024/01/17 00:14:30;;;;;;;9.63;6.67;;;;;;;;;;6213088;23;20448;-68
2024/01/17 00:16:57;;;;;;;9.70;5.23;;;;;;;;;;6213758;23;20383;-68
2024/01/17 00:19:23;;;;;;;13.73;6.30;;;;;;;;;;6214055;23;20379;-68
2024/01/17 00:21:50;;;;;;;7.80;6.20;;;;;;;;;;6212099;23;20413;-68
2024/01/17 00:24:16;;;;;;;10.53;6.13;;;;;;;;;;6212778;23;20379;-68
2024/01/17 00:26:42;;;;;;;7.83;5.97;;;;;;;;;;6186864;23;20730;-69
2024/01/17 00:29:08;;;;;;;7.07;6.30;;;;;;;;;;6213202;23;20379;-67
2024/01/17 00:31:34;;;;;;;12.70;6.50;;;;;;;;;;6186665;23;20407;-68
2024/01/17 00:34:00;;;;;;;7.70;6.80;;;;;;;;;;6212487;23;20387;-68
2024/01/17 00:36:26;;;;;;;8.20;6.27;;;;;;;;;;6212762;23;20864;-69
2024/01/17 00:38:52;;;;;;;7.43;5.87;;;;;;;;;;6212619;23;20383;-69
2024/01/17 00:41:18;;;;;;;9.90;6.00;;;;;;;;;;6213523;23;20380;-68
2024/01/17 00:43:45;;;;;;;8.50;6.50;;;;;;;;;;6213126;23;20473;-68
2024/01/17 00:46:11;;;;;;;10.47;5.63;;;;;;;;;;6212563;23;20714;-68
2024/01/17 00:48:37;;;;;;;9.67;6.57;;;;;;;;;;6214076;23;20444;-68
2024/01/17 00:51:03;;;;;;;10.27;5.67;;;;;;;;;;6213731;23;20411;-68
2024/01/17 00:53:30;;;;;;;7.60;5.63;;;;;;;;;;6213608;23;20441;-68
2024/01/17 00:55:56;;;;;;;8.87;6.07;;;;;;;;;;6212957;23;20794;-68
2024/01/17 00:58:25;;;;;;;10.43;6.60;;;;;;;;;;6213448;23;20394;-69
2024/01/17 01:00:50;;;;;;;10.60;6.13;;;;;;;;;;6212578;23;20430;-69
2024/01/17 01:03:16;;;;;;;11.37;5.97;;;;;;;;;;6186494;23;20395;-67
2024/01/17 01:05:42;;;;;;;14.43;5.40;;;;;;;;;;6186527;23;20478;-68
2024/01/17 01:08:08;;;;;;;11.50;5.93;;;;;;;;;;6212410;23;20833;-68
2024/01/17 01:10:34;;;;;;;7.70;5.23;;;;;;;;;;6213267;23;20383;-68
2024/01/17 01:13:00;;;;;;;9.00;5.83;;;;;;;;;;6212575;23;20850;-68
2024/01/17 01:15:26;;;;;;;14.93;6.40;;;;;;;;;;6212413;23;20367;-68
2024/01/17 01:17:52;;;;;;;13.27;6.43;;;;;;;;;;6185086;23;20457;-68
2024/01/17 01:20:18;;;;;;;14.13;6.50;;;;;;;;;;6213281;23;20417;-69
2024/01/17 01:22:44;;;;;;;11.77;5.90;;;;;;;;;;6185020;23;20946;-69
2024/01/17 01:25:10;;;;;;;6.13;4.20;;;;;;;;;;6211880;23;20432;-68
2024/01/17 01:27:36;;;;;;;11.10;5.50;;;;;;;;;;6212022;23;20873;-68
2024/01/17 01:30:02;;;;;;;6.73;4.47;;;;;;;;;;6185850;23;20426;-68
2024/01/17 01:32:29;;;;;;;5.07;4.57;;;;;;;;;;6212553;23;20435;-68
2024/01/17 01:34:55;;;;;;;4.57;4.13;;;;;;;;;;6212246;23;20398;-68
2024/01/17 01:37:21;;;;;;;9.17;6.43;;;;;;;;;;6212940;23;20392;-68
2024/01/17 01:39:47;;;;;;;7.33;5.37;;;;;;;;;;6212769;23;20394;-67
2024/01/17 01:42:13;;;;;;;7.03;5.80;;;;;;;;;;6212107;23;20423;-68
2024/01/17 01:44:39;;;;;;;5.33;4.80;;;;;;;;;;6212017;23;20375;-68
2024/01/17 01:47:07;;;;;;;11.37;4.70;;;;;;;;;;6212721;23;20394;-68
2024/01/17 01:49:33;;;;;;;4.93;4.30;;;;;;;;;;6211911;23;20375;-68
2024/01/17 01:51:59;;;;;;;6.00;4.20;;;;;;;;;;6212308;23;20431;-68
2024/01/17 01:54:25;;;;;;;4.37;3.77;;;;;;;;;;6212034;23;20383;-68
2024/01/17 01:56:53;;;;;;;4.80;4.40;;;;;;;;;;6212322;23;21255;-68
2024/01/17 01:59:20;;;;;;;6.03;3.90;;;;;;;;;;6211654;23;20426;-68
2024/01/17 02:01:46;;;;;;;4.40;4.00;;;;;;;;;;6211452;23;20770;-68
2024/01/17 02:04:13;;;;;;;3.67;3.30;;;;;;;;;;6186241;23;20706;-69
2024/01/17 02:06:39;;;;;;;4.13;3.67;;;;;;;;;;6212713;23;20387;-68
2024/01/17 02:09:06;;;;;;;3.30;3.10;;;;;;;;;;6212450;23;20872;-68
2024/01/17 02:11:31;;;;;;;4.20;3.90;;;;;;;;;;6212091;23;20386;-67
2024/01/17 02:13:58;;;;;;;4.93;4.53;;;;;;;;;;6211529;23;20398;-68
2024/01/17 02:16:24;;;;;;;5.67;5.10;;;;;;;;;;6211343;23;20375;-68
2024/01/17 02:18:50;;;;;;;4.20;4.00;;;;;;;;;;6212225;23;20787;-67
2024/01/17 02:21:16;;;;;;;4.17;3.87;;;;;;;;;;6212351;23;20421;-68
2024/01/17 02:23:42;;;;;;;4.13;3.93;;;;;;;;;;6211726;23;20857;-68
2024/01/17 02:26:09;;;;;;;3.60;3.40;;;;;;;;;;6184304;23;20799;-68
2024/01/17 02:28:35;;;;;;;4.20;3.87;;;;;;;;;;6210987;23;20844;-67
2024/01/17 02:31:01;;;;;;;3.63;3.30;;;;;;;;;;6212162;23;20378;-67
2024/01/17 02:33:27;;;;;;;5.40;3.93;;;;;;;;;;6211885;23;20489;-68
2024/01/17 02:35:54;;;;;;;4.60;4.20;;;;;;;;;;6212032;23;20407;-68
2024/01/17 02:38:20;;;;;;;7.17;4.13;;;;;;;;;;6212008;23;20387;-68
2024/01/17 02:40:46;;;;;;;4.33;3.93;;;;;;;;;;6212254;23;20912;-68
2024/01/17 02:43:12;;;;;;;4.20;3.90;;;;;;;;;;6212134;23;20422;-68
2024/01/17 02:45:38;;;;;;;5.13;4.63;;;;;;;;;;6211310;23;20379;-68
2024/01/17 02:48:04;;;;;;;3.67;3.37;;;;;;;;;;6185436;23;20630;-68
2024/01/17 02:50:30;;;;;;;4.60;4.13;;;;;;;;;;6211980;23;20449;-68
2024/01/17 02:52:56;;;;;;;3.77;3.50;;;;;;;;;;6211883;23;20845;-68
2024/01/17 02:55:25;;;;;;;4.30;4.03;;;;;;;;;;6212147;23;20414;-69
2024/01/17 02:57:51;;;;;;;4.70;4.07;;;;;;;;;;6212546;23;20403;-68
2024/01/17 03:00:18;;;;;;;4.50;4.20;;;;;;;;;;6184498;23;20442;-67
2024/01/17 03:02:44;;;;;;;4.50;4.10;;;;;;;;;;6184566;23;20395;-67
2024/01/17 03:05:10;;;;;;;5.70;4.03;;;;;;;;;;6211604;23;20440;-68
2024/01/17 03:07:36;;;;;;;5.07;3.60;;;;;;;;;;6212003;23;20462;-68
2024/01/17 03:10:03;;;;;;;4.60;4.30;;;;;;;;;;6212372;23;20748;-68
2024/01/17 03:12:29;;;;;;;4.53;4.13;;;;;;;;;;6211853;23;20433;-68
2024/01/17 03:14:55;;;;;;;4.27;3.93;;;;;;;;;;6211319;23;20422;-67
2024/01/17 03:17:21;;;;;;;4.53;4.10;;;;;;;;;;6211456;23;20371;-68
2024/01/17 03:19:47;;;;;;;3.87;3.40;;;;;;;;;;6185174;23;20444;-68
2024/01/17 03:22:15;;;;;;;4.27;3.97;;;;;;;;;;6212408;23;20376;-68
2024/01/17 03:24:41;;;;;;;3.93;3.73;;;;;;;;;;6213419;23;20707;-68
2024/01/17 03:27:08;;;;;;;5.67;4.50;;;;;;;;;;6213253;23;20389;-68
2024/01/17 03:29:34;;;;;;;4.53;4.13;;;;;;;;;;6213553;23;20785;-68
2024/01/17 03:32:00;;;;;;;4.87;4.30;;;;;;;;;;6213694;23;20908;-67
2024/01/17 03:34:25;;;;;;;4.90;4.50;;;;;;;;;;6213509;23;20683;-68
2024/01/17 03:36:51;;;;;;;3.80;3.50;;;;;;;;;;6214073;23;20383;-68
2024/01/17 03:39:17;;;;;;;4.60;4.20;;;;;;;;;;6213959;23;20382;-67
2024/01/17 03:41:43;;;;;;;4.73;4.43;;;;;;;;;;6213075;23;20532;-68
2024/01/17 03:44:09;;;;;;;4.70;4.23;;;;;;;;;;6213137;23;20818;-68
2024/01/17 03:46:35;;;;;;;6.97;4.40;;;;;;;;;;6213706;23;20865;-68
2024/01/17 03:49:01;;;;;;;6.10;4.77;;;;;;;;;;6213573;23;20425;-67
2024/01/17 03:51:27;;;;;;;4.87;4.37;;;;;;;;;;6213946;23;20383;-69
2024/01/17 03:53:53;;;;;;;4.83;4.33;;;;;;;;;;6213749;23;20398;-68
2024/01/17 03:56:19;;;;;;;5.93;4.63;;;;;;;;;;6211793;23;20474;-68
2024/01/17 03:58:45;;;;;;;4.80;4.50;;;;;;;;;;6213080;23;20411;-68
2024/01/17 04:01:12;;;;;;;5.87;5.27;;;;;;;;;;6187033;23;20525;-68
2024/01/17 04:03:39;;;;;;;6.13;5.00;;;;;;;;;;6213451;23;20419;-68
2024/01/17 04:06:05;;;;;;;4.73;4.43;;;;;;;;;;6212944;23;20716;-68
2024/01/17 04:08:31;;;;;;;4.60;4.30;;;;;;;;;;6213673;23;20482;-67
2024/01/17 04:10:57;;;;;;;4.80;4.47;;;;;;;;;;6213641;23;20903;-68
2024/01/17 04:13:23;;;;;;;4.30;4.10;;;;;;;;;;6213596;23;20442;-68
2024/01/17 04:15:49;;;;;;;5.50;5.07;;;;;;;;;;6212353;23;20780;-68
2024/01/17 04:18:15;;;;;;;4.73;4.43;;;;;;;;;;6213638;23;20383;-68
2024/01/17 04:20:41;;;;;;;7.53;5.00;;;;;;;;;;6213282;23;20378;-68
2024/01/17 04:23:08;;;;;;;4.47;4.17;;;;;;;;;;6213220;23;20375;-68
2024/01/17 04:25:34;;;;;;;4.33;4.07;;;;;;;;;;6212587;23;20429;-68
2024/01/17 04:28:00;;;;;;;3.93;3.73;;;;;;;;;;6212898;23;20383;-68
2024/01/17 04:30:26;;;;;;;4.80;4.30;;;;;;;;;;6212081;23;20446;-68
2024/01/17 04:32:52;;;;;;;6.30;3.50;;;;;;;;;;6212735;23;20472;-68
2024/01/17 04:35:18;;;;;;;5.13;4.70;;;;;;;;;;6185228;23;20380;-68
2024/01/17 04:37:45;;;;;;;4.80;4.40;;;;;;;;;;6186439;23;20482;-67
2024/01/17 04:40:12;;;;;;;8.73;3.77;;;;;;;;;;6213203;23;20376;-69
2024/01/17 04:42:37;;;;;;;3.70;3.50;;;;;;;;;;6213618;23;20399;-68
2024/01/17 04:45:04;;;;;;;7.40;4.63;;;;;;;;;;6211933;23;20379;-68
2024/01/17 04:47:30;;;;;;;9.63;4.63;;;;;;;;;;6213380;23;20386;-68
2024/01/17 04:49:56;;;;;;;3.60;3.30;;;;;;;;;;6213245;23;20372;-68
2024/01/17 04:52:22;;;;;;;6.33;4.43;;;;;;;;;;6212852;23;20445;-68
2024/01/17 04:54:48;;;;;;;6.93;4.10;;;;;;;;;;6186039;23;20383;-68
2024/01/17 04:57:15;;;;;;;4.47;3.93;;;;;;;;;;6213476;23;20391;-68
2024/01/17 04:59:41;;;;;;;4.33;4.00;;;;;;;;;;6212434;23;20430;-68
2024/01/17 05:02:07;;;;;;;4.73;4.50;;;;;;;;;;6213185;23;20411;-68
2024/01/17 05:04:33;;;;;;;5.27;4.77;;;;;;;;;;6160769;23;20391;-68
2024/01/17 05:06:59;;;;;;;5.80;5.20;;;;;;;;;;6212947;23;20375;-68
2024/01/17 05:09:24;;;;;;;4.77;4.40;;;;;;;;;;6186548;23;20445;-68
2024/01/17 05:11:50;;;;;;;4.63;3.90;;;;;;;;;;6212815;23;20419;-68
2024/01/17 05:14:16;;;;;;;3.67;3.53;;;;;;;;;;6213044;23;20462;-68
2024/01/17 05:16:42;;;;;;;6.60;4.60;;;;;;;;;;6212861;23;20380;-67
2024/01/17 05:19:09;;;;;;;5.23;3.80;;;;;;;;;;6212381;23;20780;-67
2024/01/17 05:21:35;;;;;;;7.67;4.80;;;;;;;;;;6213335;23;20383;-67
2024/01/17 05:24:00;;;;;;;7.90;4.10;;;;;;;;;;6212716;23;20864;-68
2024/01/17 05:26:27;;;;;;;4.80;4.40;;;;;;;;;;6212075;23;20375;-67
2024/01/17 05:28:52;;;;;;;4.50;4.10;;;;;;;;;;6212885;23;20372;-68
2024/01/17 05:31:18;;;;;;;8.80;4.20;;;;;;;;;;6212537;23;20383;-68
2024/01/17 05:33:45;;;;;;;12.80;5.60;;;;;;;;;;6212701;23;20446;-68
2024/01/17 05:36:12;;;;;;;3.90;3.60;;;;;;;;;;6211250;23;20379;-68
2024/01/17 05:38:38;;;;;;;6.20;4.80;;;;;;;;;;6212996;23;20444;-68
2024/01/17 05:41:04;;;;;;;5.10;4.40;;;;;;;;;;6212845;23;20375;-68
2024/01/17 05:43:30;;;;;;;4.63;4.23;;;;;;;;;;6185577;23;20395;-68
2024/01/17 05:45:57;;;;;;;8.23;4.37;;;;;;;;;;6211598;23;20380;-68
2024/01/17 05:48:24;;;;;;;4.57;4.20;;;;;;;;;;6212320;23;20430;-68
2024/01/17 05:50:50;;;;;;;8.10;5.93;;;;;;;;;;6212511;23;20372;-68
2024/01/17 05:53:16;;;;;;;5.73;4.73;;;;;;;;;;6212565;23;20506;-68
2024/01/17 05:55:42;;;;;;;6.73;4.67;;;;;;;;;;6212281;23;20382;-68
2024/01/17 05:58:09;;;;;;;5.27;4.87;;;;;;;;;;6212677;23;20438;-68
2024/01/17 06:00:35;;;;;;;6.90;3.37;;;;;;;;;;6185109;23;20766;-68
2024/01/17 06:03:01;;;;;;;5.30;3.83;;;;;;;;;;6212435;23;20386;-67
2024/01/17 06:05:27;;;;;;;3.60;3.33;;;;;;;;;;6211347;23;20371;-68
2024/01/17 06:07:55;;;;;;;5.87;5.40;;;;;;;;;;6181583;23;20782;-67
2024/01/17 06:10:21;;;;;;;4.30;3.90;;;;;;;;;;6211596;23;20375;-68
2024/01/17 06:12:47;;;;;;;5.03;4.53;;;;;;;;;;6210477;23;20811;-68
2024/01/17 06:15:17;;;;;;;4.60;4.20;;;;;;;;;;6210029;23;20397;-68
2024/01/17 06:17:43;;;;;;;6.00;4.10;;;;;;;;;;6211552;23;20359;-68
2024/01/17 06:20:09;;;;;;;16.63;12.23;;;;;;;;;;6211308;23;20414;-67
2024/01/17 06:22:36;;;;;;;9.17;5.23;;;;;;;;;;6211253;23;20712;-68
2024/01/17 06:25:02;;;;;;;6.10;4.30;;;;;;;;;;6211973;23;20871;-67
2024/01/17 06:27:28;;;;;;;4.40;4.00;;;;;;;;;;6212039;23;20380;-69
2024/01/17 06:29:54;;;;;;;4.57;4.30;;;;;;;;;;6211551;23;20379;-68
2024/01/17 06:32:20;;;;;;;5.10;4.80;;;;;;;;;;6211145;23;20437;-68
2024/01/17 06:34:46;;;;;;;4.93;3.73;;;;;;;;;;6212381;23;20159;-69
2024/01/17 06:37:12;;;;;;;5.23;3.53;;;;;;;;;;6212066;23;20406;-68
2024/01/17 06:39:39;;;;;;;6.90;6.30;;;;;;;;;;6211212;23;20373;-69
2024/01/17 06:42:06;;;;;;;5.77;5.27;;;;;;;;;;6211059;23;20394;-68
2024/01/17 06:44:32;;;;;;;5.90;5.50;;;;;;;;;;6208828;23;20710;-68
2024/01/17 06:46:58;;;;;;;5.50;5.10;;;;;;;;;;6210378;23;20878;-68
2024/01/17 06:49:24;;;;;;;6.37;5.77;;;;;;;;;;6211686;23;20713;-67
2024/01/17 06:51:50;;;;;;;6.07;5.10;;;;;;;;;;6211846;23;20382;-68
2024/01/17 06:54:16;;;;;;;5.90;5.50;;;;;;;;;;6211731;23;20400;-68
2024/01/17 06:56:42;;;;;;;6.00;5.50;;;;;;;;;;6210899;23;20889;-69
2024/01/17 06:59:08;;;;;;;7.33;5.57;;;;;;;;;;6214258;23;20435;-68
2024/01/17 07:01:35;;;;;;;10.97;7.33;;;;;;;;;;6213846;23;20452;-69
2024/01/17 07:04:02;;;;;;;13.67;6.63;;;;;;;;;;6187228;23;20401;-69
2024/01/17 07:06:28;;;;;;;9.50;7.37;;;;;;;;;;6212953;23;20381;-68
2024/01/17 07:08:54;;;;;;;16.40;9.30;;;;;;;;;;6213769;23;20777;-68
2024/01/17 07:11:20;;;;;;;27.27;13.43;;;;;;;;;;6214847;23;20836;-69
2024/01/17 07:13:46;;;;;;;9.80;8.80;;;;;;;;;;6213344;23;20516;-68
2024/01/17 07:16:15;;;;;;;28.23;8.80;;;;;;;;;;6212229;23;20367;-69
2024/01/17 07:18:41;;;;;;;17.53;9.17;;;;;;;;;;6214233;23;20383;-69
2024/01/17 07:21:08;;;;;;;12.50;9.20;;;;;;;;;;6214023;23;20397;-68
2024/01/17 07:23:34;;;;;;;11.83;8.87;;;;;;;;;;6213610;23;20382;-69
2024/01/17 07:26:00;;;;;;;15.43;9.53;;;;;;;;;;6215387;23;20550;-68
2024/01/17 07:28:26;;;;;;;14.77;10.20;;;;;;;;;;6211525;23;20458;-69
2024/01/17 07:30:53;;;;;;;13.87;9.23;;;;;;;;;;6215547;23;20386;-70
2024/01/17 07:33:19;;;;;;;10.60;8.80;;;;;;;;;;6214138;23;20437;-69
2024/01/17 07:35:45;;;;;;;11.07;8.90;;;;;;;;;;6213912;23;20382;-70
2024/01/17 07:38:11;;;;;;;18.20;9.73;;;;;;;;;;6214863;23;20391;-69
2024/01/17 07:40:37;;;;;;;9.17;8.07;;;;;;;;;;6188250;23;20386;-69
2024/01/17 07:43:03;;;;;;;9.23;8.10;;;;;;;;;;6214374;23;20391;-69
2024/01/17 07:45:29;;;;;;;10.30;7.53;;;;;;;;;;6214153;23;20379;-69
2024/01/17 07:47:55;;;;;;;21.40;11.87;;;;;;;;;;6212599;23;20398;-68
2024/01/17 07:50:21;;;;;;;20.40;12.90;;;;;;;;;;6214065;23;20371;-68
2024/01/17 07:52:47;;;;;;;31.57;15.60;;;;;;;;;;6214079;23;20521;-68
2024/01/17 07:55:13;;;;;;;13.27;10.23;;;;;;;;;;6214354;23;20898;-68
2024/01/17 07:57:39;;;;;;;14.30;7.77;;;;;;;;;;6215505;23;20703;-68
2024/01/17 08:00:06;;;;;;;11.87;9.20;;;;;;;;;;6212757;23;20425;-68
2024/01/17 08:02:32;;;;;;;10.83;8.60;;;;;;;;;;6214829;23;20379;-68
2024/01/17 08:04:58;;;;;;;8.37;7.57;;;;;;;;;;6218681;23;20466;-69
2024/01/17 08:07:25;;;;;;;10.17;8.60;;;;;;;;;;6218717;23;20403;-69
2024/01/17 08:09:54;;;;;;;15.67;8.00;;;;;;;;;;6216819;23;20706;-71
2024/01/17 08:12:20;;;;;;;13.93;7.83;;;;;;;;;;6217069;23;20481;-69
2024/01/17 08:14:46;;;;;;;9.90;8.93;;;;;;;;;;6216769;23;20386;-74
2024/01/17 08:17:12;;;;;;;10.13;7.67;;;;;;;;;;6216797;23;20371;-69
2024/01/17 08:19:39;;;;;;;7.80;7.00;;;;;;;;;;6216690;23;20383;-67
2024/01/17 08:22:05;;;;;;;12.93;7.63;;;;;;;;;;6216701;23;20388;-69
2024/01/17 08:24:31;;;;;;;8.10;7.30;;;;;;;;;;6189729;23;20414;-69
2024/01/17 08:26:58;;;;;;;11.20;7.73;;;;;;;;;;6217175;23;20428;-69
2024/01/17 08:29:24;;;;;;;8.80;7.17;;;;;;;;;;6217170;23;20375;-68
2024/01/17 08:31:50;;;;;;;8.67;7.87;;;;;;;;;;6216426;23;20383;-68
2024/01/17 08:34:17;;;;;;;7.73;6.90;;;;;;;;;;6216524;23;20853;-68
2024/01/17 08:36:43;;;;;;;9.03;8.10;;;;;;;;;;6189807;23;20721;-69
2024/01/17 08:39:09;;;;;;;11.60;8.20;;;;;;;;;;6216610;23;20389;-69
2024/01/17 08:41:35;;;;;;;13.13;7.23;;;;;;;;;;6216672;23;20371;-69
2024/01/17 08:44:01;;;;;;;10.87;7.30;;;;;;;;;;6216711;23;20521;-69
2024/01/17 08:46:28;;;;;;;8.47;7.63;;;;;;;;;;6216342;23;20687;-70
2024/01/17 08:48:54;;;;;;;9.23;8.33;;;;;;;;;;6216262;23;20879;-69
2024/01/17 08:51:24;;;;;;;11.77;9.57;;;;;;;;;;6216675;23;20379;-69
2024/01/17 08:53:50;;;;;;;10.03;9.03;;;;;;;;;;6216517;23;20435;-69
2024/01/17 08:56:16;;;;;;;10.37;9.27;;;;;;;;;;6216512;23;20407;-69
2024/01/17 08:58:42;;;;;;;13.40;10.30;;;;;;;;;;6215968;23;20380;-69
2024/01/17 09:01:09;;;;;;;12.17;9.20;;;;;;;;;;6216263;23;20399;-69
2024/01/17 09:03:36;;;;;;;12.90;8.50;;;;;;;;;;6216482;23;20375;-68
2024/01/17 09:06:02;;;;;;;19.50;13.47;;;;;;;;;;6216451;23;20429;-69
2024/01/17 09:08:28;;;;;;;10.63;9.43;;;;;;;;;;6216166;23;20609;-69
2024/01/17 09:13:58;;;;;;;10.50;8.23;;;;;;;;;;6216127;23;20433;-68
2024/01/17 09:16:25;;;;;;;8.90;8.10;;;;;;;;;;6215721;23;20454;-69
2024/01/17 09:18:52;;;;;;;17.73;11.37;;;;;;;;;;6189944;23;20475;-70
2024/01/17 09:21:18;;;;;;;9.17;8.23;;;;;;;;;;6214410;23;20486;-68
2024/01/17 09:23:44;;;;;;;9.27;8.33;;;;;;;;;;6215846;23;20426;-68
2024/01/17 09:26:10;;;;;;;9.23;8.40;;;;;;;;;;6217051;23;20407;-69
2024/01/17 09:28:36;;;;;;;10.20;9.20;;;;;;;;;;6216583;23;20713;-70
2024/01/17 09:31:02;;;;;;;10.10;9.20;;;;;;;;;;6215960;23;20372;-68
2024/01/17 09:33:28;;;;;;;11.07;9.43;;;;;;;;;;6216486;23;20441;-69
2024/01/17 09:35:54;;;;;;;9.37;8.37;;;;;;;;;;6215805;23;20725;-68
2024/01/17 09:38:20;;;;;;;11.97;10.40;;;;;;;;;;6216126;23;20379;-69
2024/01/17 09:40:49;;;;;;;20.27;15.60;;;;;;;;;;6215765;23;20406;-69
2024/01/17 09:43:16;;;;;;;32.90;18.03;;;;;;;;;;6215871;23;20434;-68
2024/01/17 09:45:42;;;;;;;25.63;14.73;;;;;;;;;;6214278;23;20391;-68
2024/01/17 09:48:12;;;;;;;17.50;12.70;;;;;;;;;;6216720;23;20375;-69
2024/01/17 09:50:38;;;;;;;11.63;10.27;;;;;;;;;;6216110;23;20367;-69
2024/01/17 09:53:07;;;;;;;14.50;10.77;;;;;;;;;;6215020;23;20446;-68
2024/01/17 09:55:36;;;;;;;18.10;11.17;;;;;;;;;;6216080;23;20383;-68
2024/01/17 09:58:02;;;;;;;17.40;13.80;;;;;;;;;;6216325;23;20375;-68
2024/01/17 10:00:29;;;;;;;15.03;10.50;;;;;;;;;;6215455;23;20956;-69
2024/01/17 10:02:55;;;;;;;12.77;9.60;;;;;;;;;;6216023;23;20376;-69
2024/01/17 10:05:21;;;;;;;11.97;10.77;;;;;;;;;;6189025;23;20422;-69
2024/01/17 10:07:48;;;;;;;14.30;10.50;;;;;;;;;;6216313;23;20379;-69
2024/01/17 10:10:14;;;;;;;14.07;10.43;;;;;;;;;;6215486;23;20673;-69
2024/01/17 10:12:42;;;;;;;14.77;10.50;;;;;;;;;;6216204;23;20434;-68
2024/01/17 10:15:12;;;;;;;15.97;10.00;;;;;;;;;;6215560;23;20501;-69
2024/01/17 10:17:38;;;;;;;12.63;10.80;;;;;;;;;;6215889;23;20399;-69
2024/01/17 10:20:04;;;;;;;15.00;10.87;;;;;;;;;;6215890;23;20669;-69
2024/01/17 10:22:31;;;;;;;13.50;11.37;;;;;;;;;;6215665;23;20732;-68
2024/01/17 10:25:00;;;;;;;12.73;10.23;;;;;;;;;;6216208;23;20378;-68
2024/01/17 10:27:27;;;;;;;17.70;11.50;;;;;;;;;;6215721;23;20429;-68
2024/01/17 10:29:53;;;;;;;20.93;13.20;;;;;;;;;;6216550;23;20462;-68
2024/01/17 10:32:21;;;;;;;12.83;11.60;;;;;;;;;;6215838;23;20774;-69
2024/01/17 10:34:47;;;;;;;17.97;12.53;;;;;;;;;;6215688;23;20833;-68
2024/01/17 10:37:14;;;;;;;18.57;12.67;;;;;;;;;;6215707;23;20455;-68
2024/01/17 10:39:40;;;;;;;10.53;9.47;;;;;;;;;;6215701;23;20398;-69
2024/01/17 10:42:17;;;;;;;12.50;10.83;;;;;;;;;;6215364;23;20840;-68
2024/01/17 10:44:43;;;;;;;13.47;10.50;;;;;;;;;;6215925;23;20378;-68
2024/01/17 10:47:09;;;;;;;18.67;11.73;;;;;;;;;;6215703;23;20375;-69
2024/01/17 10:49:35;;;;;;;15.00;12.30;;;;;;;;;;6215770;23;20437;-68
2024/01/17 10:52:07;;;;;;;22.13;15.20;;;;;;;;;;6215294;23;20494;-69
2024/01/17 10:54:54;;;;;;;15.90;12.70;;;;;;;;;;6215294;23;20515;-68
2024/01/17 10:57:20;;;;;;;14.27;11.17;;;;;;;;;;6215321;23;20932;-68
2024/01/17 10:59:47;;;;;;;16.23;11.70;;;;;;;;;;6215225;23;20817;-69
2024/01/17 11:02:18;;;;;;;21.43;13.10;;;;;;;;;;6215241;23;20372;-68
2024/01/17 11:04:46;;;;;;;18.73;14.00;;;;;;;;;;6188834;23;20406;-69
2024/01/17 11:07:13;;;;;;;18.80;13.60;;;;;;;;;;6215564;23;20391;-68
2024/01/17 11:09:40;;;;;;;15.20;10.97;;;;;;;;;;6215699;23;20386;-69
2024/01/17 11:12:06;;;;;;;13.97;11.90;;;;;;;;;;6216007;23;20426;-68
2024/01/17 11:14:33;;;;;;;13.53;12.13;;;;;;;;;;6215873;23;20470;-69
2024/01/17 11:17:03;;;;;;;13.67;12.03;;;;;;;;;;6215594;23;20445;-69
2024/01/17 11:19:30;;;;;;;14.57;9.80;;;;;;;;;;6215273;23;20367;-69
2024/01/17 11:21:57;;;;;;;11.63;10.50;;;;;;;;;;6215270;23;20461;-69
2024/01/17 11:24:44;;;;;;;11.87;10.23;;;;;;;;;;6215030;23;20715;-69
2024/01/17 11:27:16;;;;;;;10.87;9.77;;;;;;;;;;6215002;23;20691;-69
2024/01/17 11:29:48;;;;;;;13.30;9.87;;;;;;;;;;6215912;23;20863;-69
2024/01/17 11:32:44;;;;;;;15.57;10.83;;;;;;;;;;6215481;23;20505;-68
2024/01/17 11:35:10;;;;;;;28.40;18.60;;;;;;;;;;6195688;23;20391;-69
2024/01/17 11:37:38;;;;;;;20.80;15.10;;;;;;;;;;6215147;23;20383;-68
2024/01/17 11:40:05;;;;;;;16.30;13.23;;;;;;;;;;6215603;23;20372;-68
2024/01/17 11:42:34;;;;;;;20.60;16.07;;;;;;;;;;6215463;23;20682;-68
2024/01/17 11:45:02;;;;;;;28.83;17.40;;;;;;;;;;6215735;23;20466;-68
2024/01/17 11:47:28;;;;;;;23.20;14.90;;;;;;;;;;6215423;23;20426;-68
2024/01/17 11:49:55;;;;;;;19.10;13.17;;;;;;;;;;6217642;23;20426;-68
2024/01/17 11:52:40;;;;;;;18.97;13.77;;;;;;;;;;6217326;23;20438;-68
2024/01/17 11:55:06;;;;;;;19.30;14.03;;;;;;;;;;6216898;23;20844;-68
2024/01/17 11:57:33;;;;;;;17.40;14.00;;;;;;;;;;6217707;23;20383;-68
2024/01/17 12:00:07;;;;;;;18.17;12.37;;;;;;;;;;6217062;23;20482;-68
2024/01/17 12:02:43;;;;;;;15.20;11.33;;;;;;;;;;6217535;23;20383;-69
2024/01/17 12:05:10;;;;;;;16.30;11.43;;;;;;;;;;6216679;23;20449;-69
2024/01/17 12:07:47;;;;;;;12.10;10.93;;;;;;;;;;6217179;23;20389;-69
2024/01/17 12:10:13;;;;;;;12.90;10.83;;;;;;;;;;6216723;23;20351;-69
2024/01/17 12:12:42;;;;;;;13.17;10.40;;;;;;;;;;6215044;23;20946;-70
2024/01/17 12:15:12;;;;;;;9.37;7.40;;;;;;;;;;6216943;23;20750;-68
2024/01/17 12:17:38;;;;;;;5.80;5.30;;;;;;;;;;6217023;23;20903;-68
2024/01/17 12:20:08;;;;;;;4.87;4.57;;;;;;;;;;6216928;23;20703;-69
2024/01/17 12:22:34;;;;;;;4.80;4.50;;;;;;;;;;6216962;23;20433;-69
2024/01/17 12:25:00;;;;;;;3.60;3.30;;;;;;;;;;6216542;23;20456;-68
2024/01/17 12:27:30;;;;;;;5.20;4.80;;;;;;;;;;6189918;23;20807;-68
2024/01/17 12:29:57;;;;;;;3.10;3.00;;;;;;;;;;6216860;23;20371;-68
2024/01/17 12:32:23;;;;;;;4.53;4.13;;;;;;;;;;6216595;23;20426;-68
2024/01/17 12:34:50;;;;;;;5.60;4.73;;;;;;;;;;6216879;23;20410;-67
2024/01/17 12:37:16;;;;;;;5.30;4.30;;;;;;;;;;6216483;23;20379;-69
2024/01/17 12:39:42;;;;;;;8.17;5.97;;;;;;;;;;6216958;23;20379;-68
2024/01/17 12:42:10;;;;;;;22.77;14.80;;;;;;;;;;6216608;23;20755;-68
2024/01/17 12:44:36;;;;;;;4.47;4.17;;;;;;;;;;6216781;23;20455;-69
2024/01/17 12:47:03;;;;;;;5.37;1.73;;;;;;;;;;6216214;23;20430;-68
2024/01/17 12:49:29;;;;;;;5.17;2.50;;;;;;;;;;6216560;23;20379;-68
2024/01/17 12:51:55;;;;;;;3.23;2.57;;;;;;;;;;6216488;23;20375;-69
2024/01/17 12:54:23;;;;;;;4.30;4.10;;;;;;;;;;6216744;23;20458;-69
2024/01/17 12:56:51;;;;;;;1.30;1.30;;;;;;;;;;6216126;23;20442;-69
2024/01/17 12:59:17;;;;;;;9.00;2.37;;;;;;;;;;6216572;23;20430;-69
2024/01/17 13:01:43;;;;;;;3.80;1.63;;;;;;;;;;6216540;23;20387;-69
2024/01/17 13:04:09;;;;;;;1.57;1.57;;;;;;;;;;6216330;23;20837;-69
2024/01/17 13:06:45;;;;;;;1.93;1.83;;;;;;;;;;6216176;23;20375;-68
2024/01/17 13:09:17;;;;;;;1.90;1.90;;;;;;;;;;6216668;23;20821;-68
2024/01/17 13:12:05;;;;;;;4.00;1.97;;;;;;;;;;6216413;23;20406;-69
2024/01/17 13:14:32;;;;;;;6.30;2.50;;;;;;;;;;6216249;23;20379;-69
2024/01/17 13:16:58;;;;;;;1.80;1.80;;;;;;;;;;6216521;23;20379;-69
2024/01/17 13:19:24;;;;;;;6.13;2.00;;;;;;;;;;6216008;23;20394;-68
2024/01/17 13:21:50;;;;;;;1.53;1.53;;;;;;;;;;6189634;23;20434;-68
2024/01/17 13:24:16;;;;;;;1.90;1.90;;;;;;;;;;6216041;23;20514;-69
2024/01/17 13:26:43;;;;;;;6.90;1.30;;;;;;;;;;6216689;23;20371;-69
2024/01/17 13:29:12;;;;;;;1.93;1.87;;;;;;;;;;6216198;23;20379;-68
2024/01/17 13:31:38;;;;;;;1.77;1.77;;;;;;;;;;6215921;23;20371;-68
2024/01/17 13:34:07;;;;;;;1.60;1.50;;;;;;;;;;6216130;23;20506;-69
2024/01/17 13:36:33;;;;;;;1.93;1.83;;;;;;;;;;6215844;23;20394;-68
2024/01/17 13:39:00;;;;;;;3.03;2.93;;;;;;;;;;6216047;23;20383;-69
2024/01/17 13:41:26;;;;;;;2.93;2.47;;;;;;;;;;6215929;23;20371;-69
2024/01/17 13:43:53;;;;;;;2.07;1.97;;;;;;;;;;6216615;23;20467;-68
2024/01/17 13:46:19;;;;;;;2.43;2.33;;;;;;;;;;6189830;23;20723;-69
2024/01/17 13:48:46;;;;;;;3.23;1.83;;;;;;;;;;6189164;23;20395;-68
2024/01/17 13:51:12;;;;;;;1.47;1.47;;;;;;;;;;6215752;23;20856;-69
2024/01/17 13:53:41;;;;;;;1.77;1.70;;;;;;;;;;6215402;23;20601;-68
2024/01/17 13:56:09;;;;;;;2.00;1.33;;;;;;;;;;6189965;23;20380;-69
2024/01/17 13:58:37;;;;;;;3.70;1.90;;;;;;;;;;6216998;23;20387;-69
2024/01/17 14:01:04;;;;;;;1.80;1.80;;;;;;;;;;6215601;23;20809;-68
2024/01/17 14:03:31;;;;;;;2.50;2.07;;;;;;;;;;6216156;23;20379;-68
2024/01/17 14:05:56;;;;;;;28.93;11.43;;;;;;;;;;6216000;23;20426;-70
2024/01/17 14:08:22;;;;;;;6.10;5.57;;;;;;;;;;6216276;23;20388;-68
2024/01/17 14:10:48;;;;;;;4.60;4.40;;;;;;;;;;6215618;23;20466;-69
2024/01/17 14:13:14;;;;;;;2.10;2.10;;;;;;;;;;6215700;23;20510;-68
2024/01/17 14:15:44;;;;;;;2.10;2.00;;;;;;;;;;6215354;23;20407;-69
2024/01/17 14:18:13;;;;;;;3.50;2.23;;;;;;;;;;6215455;23;20375;-69
2024/01/17 14:23:42;;;;;;;4.77;3.80;;;;;;;;;;6215593;23;20362;-69
2024/01/17 14:26:09;;;;;;;4.30;3.03;;;;;;;;;;6215298;23;20379;-69
2024/01/17 14:28:35;;;;;;;2.33;2.23;;;;;;;;;;6215915;23;20371;-68
2024/01/17 14:31:01;;;;;;;2.70;1.87;;;;;;;;;;6215696;23;20875;-69
2024/01/17 14:33:27;;;;;;;1.60;1.50;;;;;;;;;;6215586;23;20510;-69
2024/01/17 14:35:53;;;;;;;1.43;1.43;;;;;;;;;;6215273;23;20372;-68
2024/01/17 14:38:20;;;;;;;3.40;1.83;;;;;;;;;;6215580;23;20375;-68
2024/01/17 14:40:46;;;;;;;2.73;2.53;;;;;;;;;;6215630;23;20393;-68